Terminal Aerodrome Forecast
Issued by NWS

Home | Current Version | Previous Version | Text Only | Print | Product List | Glossary On
Versions: 1 2 3 4 5 6 7 8 9 10 11 12 13 14 15 16 17 18 19 20 21 22 23
351
FTUS45 KCYS 062320
TAFAIA
TAF
KAIA 062320Z 0700/0724 12012G22KT P6SM BKN100
     FM070300 06011KT P6SM BKN050
     FM070800 05013KT 2SM BR OVC025
     FM071500 08018KT P6SM BKN050
     FM072000 08025KT P6SM VCTS BKN050CB
      TEMPO 0720/0724 4SM -TSRA BKN025CB=

USA.gov is the U.S. government's official web portal to all federal, state and local government web resources and services.